Latest Weather Observations for Mount Crawford

IDS60901

Issued at 8:41 pm CDT Friday 24 March 2017 (issued every 10 minutes, with the page automatically refreshed every 10 minutes)

About weather observations | Map of Adelaide area stations | Latest observations for Adelaide area | Other Formats
Station Details ID: 023878 Name: MOUNT CRAWFORD AWS Lat: -34.73 Lon: 138.93 Height: 525.0 m
Data from the previous 72 hours. | See also: Recent months at Mount Crawford
Date/Time
CDT
Temp
°C
App
Temp
°C
Dew
Point
°C
Rel
Hum
%
Delta-T
°C
Wind Press
QNH
hPa
Press
MSL
hPa
Rain since
9am
mm
Dir  Spd
km/h
Gust
km/h
Spd
kts
Gust
kts
24/08:30pm 23.6 22.1 13.2 52 6.2 SW 13 17 7 9 1014.5 1012.9 0.0
24/08:00pm 24.2 22.7 13.1 50 6.6 SW 13 17 7 9 1014.4 1012.8 0.0
24/07:30pm 24.5 23.3 12.8 48 6.9 WSW 11 15 6 8 1014.2 1012.6 0.0
24/07:00pm 25.3 25.1 12.9 46 7.4 SSW 6 7 3 4 1013.8 1012.1 0.0
24/06:30pm 26.0 25.2 12.8 44 7.8 SW 9 13 5 7 1013.9 1012.3 0.0
24/06:00pm 26.9 25.1 13.3 43 8.2 WSW 15 20 8 11 1013.8 1012.1 0.0
24/05:30pm 27.5 25.5 13.8 43 8.3 WSW 17 24 9 13 1013.9 1012.3 0.0
24/05:00pm 28.7 26.1 13.8 40 9.1 W 20 28 11 15 1013.8 1012.1 0.0
24/04:30pm 27.5 26.5 13.4 41 8.5 N 11 15 6 8 1014.0 1012.4 0.0
24/04:00pm 29.0 27.4 14.0 39 9.2 NW 15 20 8 11 1013.8 1012.1 0.0
24/03:30pm 28.3 26.8 14.2 42 8.6 NNE 15 20 8 11 1013.9 1012.3 0.0
24/03:00pm 26.9 24.9 14.0 45 7.8 N 17 24 9 13 1014.2 1012.6 0.0
24/02:30pm 26.1 25.0 14.2 48 7.2 NNW 13 20 7 11 1014.6 1013.0 0.0
24/02:00pm 27.2 24.8 13.9 44 8.1 NNE 19 24 10 13 1014.6 1013.0 0.0
24/01:30pm 26.8 24.4 13.9 45 7.8 NNE 19 28 10 15 1015.2 1013.5 0.0
24/01:00pm 27.1 25.0 15.1 47 7.4 NE 20 32 11 17 1015.3 1013.6 0.0
24/12:30pm 26.0 23.1 15.1 51 6.7 NE 24 32 13 17 1015.6 1014.0 0.0
24/12:00pm 25.9 22.7 15.3 52 6.6 NE 26 37 14 20 1015.6 1014.0 0.0
24/11:30am 25.1 23.1 16.5 59 5.4 ENE 22 33 12 18 1015.9 1014.3 0.0
24/11:00am 23.1 20.8 16.6 67 4.1 NE 24 32 13 17 1016.5 1014.9 0.0
24/10:30am 20.3 18.6 15.7 75 2.8 ENE 19 24 10 13 1016.7 1015.1 0.0
24/10:00am 20.1 18.2 15.7 76 2.7 ENE 20 28 11 15 1016.6 1015.0 0.0
24/09:30am 20.0 16.8 15.4 75 2.8 ENE 26 35 14 19 1016.2 1014.6 0.0
24/09:00am 18.0 14.7 14.9 82 1.8 ENE 26 32 14 17 1016.4 1014.8 0.0
24/08:30am 17.6 14.6 14.7 83 1.7 ENE 24 32 13 17 1016.6 1015.0 0.0
24/08:00am 16.4 12.9 14.6 89 1.1 ENE 26 35 14 19 1016.2 1014.6 0.0
24/07:30am 15.8 12.1 14.0 89 1.0 E 26 32 14 17 1016.3 1014.7 0.0
24/07:00am 15.6 11.5 13.8 89 1.0 ENE 28 37 15 20 1015.5 1013.9 0.0
24/06:30am 15.7 12.2 13.5 87 1.3 E 24 30 13 16 1016.4 1014.8 0.0
24/06:00am 15.9 12.1 13.6 86 1.3 ENE 26 33 14 18 1015.9 1014.3 0.0
24/05:30am 15.9 12.0 13.4 85 1.4 E 26 32 14 17 1015.7 1014.1 0.0
24/05:00am 16.0 12.5 13.5 85 1.4 E 24 30 13 16 1016.0 1014.4 0.0
24/04:30am 16.1 13.4 13.4 84 1.5 E 20 28 11 15 1016.0 1014.4 0.0
24/04:00am 16.4 13.4 13.7 84 1.6 E 22 28 12 15 1015.8 1014.2 0.0
24/03:30am 16.3 13.4 14.0 86 1.3 E 22 28 12 15 1016.1 1014.5 0.0
24/03:00am 16.7 13.4 14.0 84 1.6 ESE 24 30 13 16 1016.6 1015.0 0.0
24/02:30am 16.9 13.7 14.2 84 1.6 ESE 24 28 13 15 1016.9 1015.3 0.0
24/02:00am 16.6 13.9 14.6 88 1.2 ESE 22 28 12 15 1017.2 1015.6 0.0
24/01:30am 16.4 13.4 14.8 90 0.9 ESE 24 30 13 16 1017.2 1015.6 0.0
24/01:00am 16.5 14.3 14.9 90 0.9 ESE 20 26 11 14 1017.5 1015.9 0.0
24/12:30am 16.6 14.0 14.8 89 1.1 ESE 22 32 12 17 1017.5 1015.9 0.0
24/12:00am 17.1 14.1 14.7 86 1.4 SE 24 33 13 18 1017.5 1015.9 0.0
 
Date/Time
CDT
Temp
°C
App
Temp
°C
Dew
Point
°C
Rel
Hum
%
Delta-T
°C
Wind Press
QNH
hPa
Press
MSL
hPa
Rain since
9am
mm
Dir  Spd
km/h
Gust
km/h
Spd
kts
Gust
kts
23/11:30pm 17.4 14.0 14.7 84 1.6 SE 26 39 14 21 1017.6 1016.0 0.0
23/11:00pm 17.4 13.6 14.7 84 1.6 SE 28 39 15 21 1017.6 1016.0 0.0
23/10:30pm 17.3 13.4 14.4 83 1.7 SE 28 37 15 20 1017.5 1015.9 0.0
23/10:00pm 17.2 12.9 14.3 83 1.7 SE 30 39 16 21 1017.3 1015.7 0.0
23/09:30pm 17.2 13.3 14.3 83 1.7 SE 28 41 15 22 1017.3 1015.7 0.0
23/09:00pm 16.9 13.7 14.2 84 1.6 SE 24 35 13 19 1016.8 1015.2 0.0
23/08:30pm 17.5 14.3 14.2 81 1.9 SE 24 33 13 18 1016.9 1015.3 0.0
23/08:00pm 18.5 15.8 14.6 78 2.3 SE 22 32 12 17 1016.5 1014.9 0.0
23/07:30pm 19.3 16.6 14.6 74 2.8 SE 22 32 12 17 1016.3 1014.7 0.0
23/07:00pm 21.2 18.7 14.1 64 4.2 SE 20 28 11 15 1016.2 1014.6 0.0
23/06:30pm 22.5 18.3 13.6 57 5.3 ESE 28 39 15 21 1016.2 1014.6 0.0
23/06:00pm 23.3 19.5 13.5 54 5.8 ESE 26 35 14 19 1016.1 1014.5 0.0
23/05:30pm 24.0 20.5 13.5 52 6.3 ESE 24 35 13 19 1016.0 1014.4 0.0
23/05:00pm 23.9 19.7 13.4 51 6.2 ESE 28 39 15 21 1016.1 1014.5 0.0
23/04:30pm 24.1 19.8 13.3 51 6.4 ESE 28 39 15 21 1016.1 1014.5 0.0
23/04:00pm 24.0 19.9 13.8 53 6.1 ESE 28 41 15 22 1016.1 1014.5 0.0
23/03:30pm 23.4 20.1 14.1 56 5.6 ESE 24 35 13 19 1016.3 1014.7 0.0
23/03:00pm 23.9 20.7 14.3 55 5.8 E 24 33 13 18 1016.4 1014.8 0.0
23/02:30pm 23.4 20.0 14.7 58 5.3 ESE 26 37 14 20 1016.5 1014.9 0.0
23/02:00pm 22.5 19.0 14.4 60 4.9 ESE 26 35 14 19 1016.8 1015.2 0.0
23/01:30pm 22.3 18.3 14.2 60 4.8 ESE 28 39 15 21 1017.3 1015.7 0.0
23/01:00pm 21.8 17.8 14.2 62 4.5 E 28 39 15 21 1017.8 1016.2 0.0
23/12:30pm 21.3 17.4 14.5 65 4.1 ESE 28 39 15 21 1018.2 1016.6 0.0
23/12:00pm 20.2 17.1 14.6 70 3.3 SE 24 33 13 18 1018.6 1017.0 0.0
23/11:30am 19.6 17.2 14.4 72 3.1 ESE 20 30 11 16 1018.7 1017.1 0.0
23/11:00am 17.9 15.1 14.4 80 2.1 ESE 22 32 12 17 1018.7 1017.1 0.0
23/10:30am 16.8 13.2 15.2 90 1.0 ESE 28 39 15 21 1018.3 1016.7 0.0
23/10:00am 14.9 11.6 14.9 100 0.0 ESE 26 37 14 20 1018.5 1016.9 0.0
23/09:30am 13.6 9.8 13.6 100 0.0 ESE 26 37 14 20 1018.8 1017.3 0.0
23/09:00am 13.2 9.3 13.2 100 0.0 ESE 26 33 14 18 1018.3 1016.7 0.0
23/08:30am 12.9 9.3 12.9 100 0.0 ESE 24 35 13 19 1018.3 1016.7 0.0
23/08:00am 12.6 7.1 12.6 100 0.0 ESE 33 43 18 23 1017.6 1016.0 0.0
23/07:30am 12.7 7.5 12.7 100 0.0 ESE 32 43 17 23 1017.4 1015.8 0.0
23/07:00am 12.7 7.5 12.7 100 0.0 ESE 32 41 17 22 1017.2 1015.6 0.0
23/06:30am 12.7 6.9 12.7 100 0.0 ESE 35 50 19 27 1016.8 1015.2 0.0
23/06:00am 12.9 6.4 12.9 100 0.0 ESE 39 48 21 26 1016.6 1015.0 0.0
23/05:30am 13.0 7.3 13.0 100 0.0 ESE 35 46 19 25 1016.5 1014.9 0.0
23/05:00am 13.0 7.9 13.0 100 0.0 ESE 32 43 17 23 1017.2 1015.6 0.0
23/04:30am 13.2 10.4 13.2 100 0.0 ESE 20 28 11 15 1017.7 1016.1 0.0
23/04:00am 13.1 10.3 13.1 100 0.0 SE 20 33 11 18 1017.7 1016.1 0.0
23/03:30am 13.3 10.5 13.3 100 0.0 ESE 20 28 11 15 1017.6 1016.0 0.0
23/03:00am 13.3 9.4 13.3 100 0.0 ESE 26 37 14 20 1017.4 1015.8 0.0
23/02:30am 13.4 9.2 13.4 100 0.0 ESE 28 41 15 22 1017.4 1015.8 0.0
23/02:00am 13.5 9.3 13.5 100 0.0 ESE 28 41 15 22 1017.2 1015.6 0.0
23/01:36am 13.7 9.6 13.7 100 0.0 SE 28 46 15 25 1017.5 1015.9 0.0
23/01:30am 13.7 9.6 13.7 100 0.0 SE 28 43 15 23 1017.6 1016.0 0.0
23/01:00am 14.0 10.0 14.0 100 0.0 ESE 28 44 15 24 1017.9 1016.3 0.0
23/12:47am 14.1 10.1 14.1 100 0.0 ESE 28 50 15 27 1018.1 1016.5 0.0
23/12:30am 14.1 10.5 14.1 100 0.0 ESE 26 39 14 21 1018.3 1016.7 0.0
23/12:00am 14.4 10.1 14.4 100 0.0 SE 30 44 16 24 1018.2 1016.6 0.0
 
Date/Time
CDT
Temp
°C
App
Temp
°C
Dew
Point
°C
Rel
Hum
%
Delta-T
°C
Wind Press
QNH
hPa
Press
MSL
hPa
Rain since
9am
mm
Dir  Spd
km/h
Gust
km/h
Spd
kts
Gust
kts
22/11:30pm 14.4 10.0 14.2 99 0.1 SE 30 48 16 26 1017.8 1016.2 0.0
22/11:26pm 14.5 10.2 14.3 99 0.1 ESE 30 48 16 26 1017.9 1016.3 0.0
22/11:00pm 14.5 10.2 14.3 99 0.1 SE 30 44 16 24 1018.0 1016.4 0.0
22/10:30pm 14.6 9.8 14.6 100 0.0 SE 33 46 18 25 1017.9 1016.3 0.0
22/10:00pm 14.7 10.9 14.7 100 0.0 SE 28 39 15 21 1018.1 1016.5 0.0
22/09:30pm 14.7 12.0 14.7 100 0.0 ESE 22 35 12 19 1018.1 1016.5 0.0
22/09:00pm 15.3 13.4 15.1 99 0.1 SE 19 26 10 14 1018.1 1016.5 0.0
22/08:30pm 15.6 14.1 15.3 98 0.2 SE 17 28 9 15 1017.8 1016.2 0.0
22/08:00pm 15.6 13.2 15.4 99 0.1 SE 22 35 12 19 1017.3 1015.7 0.0
22/07:30pm 16.1 12.3 14.8 92 0.8 SE 28 39 15 21 1016.7 1015.1 0.0
22/07:00pm 16.5 13.1 14.7 89 1.1 SE 26 37 14 20 1016.7 1015.1 0.0
22/06:30pm 16.8 13.0 14.6 87 1.3 SE 28 44 15 24 1016.5 1014.9 0.0
22/06:00pm 16.9 12.3 14.5 86 1.4 SE 32 50 17 27 1016.2 1014.6 0.0
22/05:54pm 17.0 12.8 14.6 86 1.4 SE 30 50 16 27 1016.1 1014.5 0.0
22/05:30pm 17.4 13.2 14.7 84 1.6 SE 30 43 16 23 1016.1 1014.5 0.0
22/05:02pm 17.7 13.2 14.8 83 1.7 SE 32 50 17 27 1016.0 1014.4 0.0
22/05:00pm 17.4 12.6 14.5 83 1.7 ESE 33 50 18 27 1015.9 1014.3 0.0
22/04:35pm 17.5 13.3 14.6 83 1.7 SE 30 48 16 26 1016.1 1014.5 0.0
22/04:30pm 17.9 14.6 15.0 83 1.7 SE 26 37 14 20 1016.2 1014.6 0.0
22/04:00pm 17.4 13.6 14.7 84 1.6 SE 28 41 15 22 1016.5 1014.9 0.0
22/03:30pm 17.7 13.9 14.8 83 1.7 SE 28 43 15 23 1016.5 1014.9 0.0
22/03:02pm 17.6 14.1 15.4 87 1.3 SE 28 46 15 25 1016.5 1014.9 0.0
22/03:00pm 17.5 13.5 15.1 86 1.4 SE 30 46 16 25 1016.4 1014.8 0.0
22/02:45pm 17.5 13.0 15.0 85 1.5 SE 32 50 17 27 1016.4 1014.8 0.0
22/02:30pm 17.8 13.8 15.2 85 1.6 SE 30 46 16 25 1016.4 1014.8 0.0
22/02:21pm 17.7 14.0 15.0 84 1.6 SE 28 46 15 25 1016.5 1014.9 0.0
22/02:00pm 17.0 14.5 15.2 89 1.1 SE 22 41 12 22 1016.8 1015.2 0.0
22/01:30pm 16.7 13.5 15.2 91 0.9 SE 26 41 14 22 1017.1 1015.4 0.0
22/01:00pm 16.2 13.6 15.9 98 0.2 SE 24 37 13 20 1017.2 1015.6 0.0
22/12:30pm 15.4 11.8 15.2 99 0.1 SE 28 46 15 25 1017.4 1015.8 0.0
22/12:00pm 15.7 12.6 15.5 99 0.1 SE 26 39 14 21 1017.5 1015.9 0.0
22/11:30am 15.4 11.9 15.4 100 0.0 SE 28 43 15 23 1017.6 1016.0 0.0
22/11:00am 15.0 12.4 15.0 100 0.0 SE 22 32 12 17 1018.0 1016.4 0.0
22/10:30am 14.8 11.4 14.8 100 0.0 SE 26 37 14 20 1017.7 1016.1 0.0
22/10:00am 14.7 10.1 14.7 100 0.0 SE 32 44 17 24 1017.3 1015.7 0.0
22/09:30am 14.5 9.7 14.5 100 0.0 SE 33 48 18 26 1016.9 1015.3 0.0
22/09:04am 14.5 9.9 14.5 100 0.0 SE 32 50 17 27 1016.5 1014.9 0.0
22/09:00am 14.5 9.3 14.5 100 0.0 SE 35 50 19 27 1016.4 1014.8 0.2
22/08:30am 14.4 9.5 14.4 100 0.0 SE 33 46 18 25 1016.1 1014.5 0.2
22/08:12am 14.3 9.6 14.3 100 0.0 SE 32 50 17 27 1015.8 1014.2 0.2
22/08:00am 14.4 10.1 14.4 100 0.0 SE 30 44 16 24 1015.7 1014.1 0.2
22/07:30am 14.4 9.7 14.4 100 0.0 SE 32 46 17 25 1015.5 1013.9 0.2
22/07:00am 14.4 9.7 14.4 100 0.0 SE 32 48 17 26 1015.2 1013.5 0.2
22/06:41am 14.4 9.7 14.4 100 0.0 SE 32 50 17 27 1014.8 1013.2 0.2
22/06:30am 14.3 9.0 14.3 100 0.0 SE 35 48 19 26 1014.6 1013.0 0.2
22/06:00am 14.4 9.5 14.4 100 0.0 SE 33 44 18 24 1014.2 1012.6 0.2
22/05:44am 14.4 9.2 14.4 100 0.0 SE 35 56 19 30 1014.2 1012.6 0.2
22/05:30am 14.6 10.0 14.6 100 0.0 SE 32 48 17 26 1014.0 1012.4 0.2
22/05:00am 14.6 10.8 14.6 100 0.0 SE 28 39 15 21 1014.0 1012.4 0.2
22/04:30am 14.8 10.3 14.8 100 0.0 SE 32 44 17 24 1013.8 1012.1 0.2
22/04:27am 14.8 10.3 14.8 100 0.0 SE 32 50 17 27 1013.9 1012.3 0.2
22/04:00am 15.1 10.7 15.1 100 0.0 SE 32 46 17 25 1013.7 1012.0 0.2
22/03:30am 15.2 10.8 15.2 100 0.0 SE 32 46 17 25 1013.9 1012.3 0.2
22/03:00am 15.4 10.9 15.4 100 0.0 SE 33 48 18 26 1013.8 1012.1 0.2
22/02:30am 15.7 12.3 15.7 100 0.0 SE 28 46 15 25 1013.9 1012.3 0.2
22/02:28am 15.7 12.3 15.7 100 0.0 SE 28 46 15 25 1013.8 1012.1 0.2
22/02:00am 15.8 11.6 15.8 100 0.0 SE 32 43 17 23 1014.0 1012.4 0.2
22/01:30am 15.7 11.9 15.7 100 0.0 SE 30 43 16 23 1014.0 1012.4 0.2
22/01:25am 15.7 11.9 15.7 100 0.0 SE 30 48 16 26 1014.0 1012.4 0.2
22/01:00am 16.0 12.7 16.0 100 0.0 SE 28 43 15 23 1014.0 1012.4 0.2
22/12:30am 16.3 12.3 16.3 100 0.0 SSE 32 44 17 24 1013.9 1012.3 0.2
22/12:00am 16.6 12.8 16.6 100 0.0 SSE 32 43 17 23 1014.1 1012.5 0.2
 
Date/Time
CDT
Temp
°C
App
Temp
°C
Dew
Point
°C
Rel
Hum
%
Delta-T
°C
Wind Press
QNH
hPa
Press
MSL
hPa
Rain since
9am
mm
Dir  Spd
km/h
Gust
km/h
Spd
kts
Gust
kts
21/11:50pm 16.7 13.7 16.7 100 0.0 SE 28 48 15 26 1013.9 1012.3 0.2
21/11:30pm 17.1 13.5 17.1 100 0.0 SSE 32 41 17 22 1013.9 1012.3 0.2
21/11:00pm 16.9 13.6 16.9 100 0.0 SSE 30 43 16 23 1013.9 1012.3 0.2
21/10:30pm 17.0 13.7 17.0 100 0.0 SE 30 39 16 21 1013.8 1012.1 0.2
21/10:00pm 17.2 14.4 17.2 100 0.0 SSE 28 39 15 21 1013.7 1012.0 0.2
21/09:30pm 17.2 14.7 17.2 100 0.0 SSE 26 35 14 19 1013.3 1011.6 0.2
21/09:00pm 17.3 15.3 17.3 100 0.0 SSE 24 32 13 17 1012.8 1011.2 0.2

Latest Capital City Observations: Canberra | Sydney | Melbourne | Brisbane | Adelaide | Perth | Hobart | Darwin

Other Formats:

Comma delimited format used in spreadsheet applications
http://www.bom.gov.au/fwo/IDS60901/IDS60901.94678.axf

JavaScript Object Notation format (JSON) in row-major order
http://www.bom.gov.au/fwo/IDS60901/IDS60901.94678.json